Time;durP1;ratioP1;P1;durP2;ratioP2;P2;SDS_P1;SDS_P2;PMS_P1;PMS_P2;Temp;Humidity;BMP_temperature;BMP_pressure;BME280_temperature;BME280_humidity;BME280_pressure;Samples;Min_cycle;Max_cycle;Signal;HPM_P1;HPM_P2
2023/06/08 00:01:30;;;;;;;13.93;5.95;;;;;;;;;;5069593;28;20908;-56
2023/06/08 00:03:57;;;;;;;10.97;5.00;;;;;;;;;;5071119;28;20239;-56
2023/06/08 00:06:22;;;;;;;9.90;4.50;;;;;;;;;;5071068;28;20294;-56
2023/06/08 00:08:49;;;;;;;12.40;5.20;;;;;;;;;;5071518;28;20279;-56
2023/06/08 00:11:16;;;;;;;10.52;4.82;;;;;;;;;;5066931;28;20431;-58
2023/06/08 00:13:42;;;;;;;9.93;5.10;;;;;;;;;;5071284;28;20657;-56
2023/06/08 00:16:08;;;;;;;11.37;4.93;;;;;;;;;;5071284;28;20283;-56
2023/06/08 00:18:36;;;;;;;11.40;5.20;;;;;;;;;;5071466;28;20200;-56
2023/06/08 00:21:02;;;;;;;11.07;4.90;;;;;;;;;;5071130;28;20257;-57
2023/06/08 00:23:28;;;;;;;12.87;5.43;;;;;;;;;;5070873;28;20701;-54
2023/06/08 00:25:54;;;;;;;9.13;4.97;;;;;;;;;;5071203;28;20200;-56
2023/06/08 00:28:23;;;;;;;12.20;4.97;;;;;;;;;;5071177;28;20249;-57
2023/06/08 00:30:49;;;;;;;10.80;5.17;;;;;;;;;;5071224;28;20692;-56
2023/06/08 00:33:15;;;;;;;11.80;5.60;;;;;;;;;;5070947;28;20661;-54
2023/06/08 00:35:41;;;;;;;12.67;5.70;;;;;;;;;;5071009;28;20191;-55
2023/06/08 00:38:07;;;;;;;9.33;4.87;;;;;;;;;;5071346;28;20278;-53
2023/06/08 00:40:33;;;;;;;10.90;5.57;;;;;;;;;;5071084;28;20661;-54
2023/06/08 00:42:59;;;;;;;10.25;5.47;;;;;;;;;;5070064;28;20560;-54
2023/06/08 00:45:27;;;;;;;12.67;5.17;;;;;;;;;;5070838;28;20234;-54
2023/06/08 00:47:53;;;;;;;8.70;5.30;;;;;;;;;;5071117;28;20204;-54
2023/06/08 00:50:20;;;;;;;10.77;4.97;;;;;;;;;;5070859;28;20199;-54
2023/06/08 00:52:47;;;;;;;8.00;4.73;;;;;;;;;;5071119;28;20200;-54
2023/06/08 00:55:13;;;;;;;12.37;5.47;;;;;;;;;;5072943;28;20298;-54
2023/06/08 00:57:40;;;;;;;13.40;6.40;;;;;;;;;;5073842;28;20419;-54
2023/06/08 01:00:08;;;;;;;9.90;5.40;;;;;;;;;;5074887;28;20222;-54
2023/06/08 01:02:36;;;;;;;8.53;5.70;;;;;;;;;;5074958;28;20213;-54
2023/06/08 01:05:03;;;;;;;10.97;6.20;;;;;;;;;;5074707;28;20310;-54
2023/06/08 01:07:33;;;;;;;9.90;5.40;;;;;;;;;;5074646;28;20209;-54
2023/06/08 01:10:02;;;;;;;17.50;6.90;;;;;;;;;;5074704;28;20215;-54
2023/06/08 01:12:31;;;;;;;12.03;6.53;;;;;;;;;;5074474;28;20219;-53
2023/06/08 01:15:01;;;;;;;9.87;5.97;;;;;;;;;;5074537;28;20842;-54
2023/06/08 01:17:32;;;;;;;10.80;5.40;;;;;;;;;;5074403;28;20200;-53
2023/06/08 01:20:06;;;;;;;10.27;6.47;;;;;;;;;;5074509;28;20595;-54
2023/06/08 01:22:38;;;;;;;14.70;7.20;;;;;;;;;;5074423;28;20206;-53
2023/06/08 01:25:08;;;;;;;12.90;7.13;;;;;;;;;;5074237;28;20709;-54
2023/06/08 01:27:36;;;;;;;11.67;6.10;;;;;;;;;;5074426;28;20212;-54
2023/06/08 01:30:03;;;;;;;10.10;5.43;;;;;;;;;;5074333;28;20278;-54
2023/06/08 01:32:29;;;;;;;12.47;6.37;;;;;;;;;;5074142;28;20487;-53
2023/06/08 01:34:55;;;;;;;11.90;6.17;;;;;;;;;;5074044;28;20645;-54
2023/06/08 01:37:27;;;;;;;12.07;6.10;;;;;;;;;;5074117;28;20211;-54
2023/06/08 01:39:56;;;;;;;15.63;6.77;;;;;;;;;;5074215;28;20220;-54
2023/06/08 01:42:25;;;;;;;10.53;6.60;;;;;;;;;;5074081;28;20207;-54
2023/06/08 01:44:56;;;;;;;12.00;5.93;;;;;;;;;;5074130;28;20670;-54
2023/06/08 01:47:23;;;;;;;11.37;6.23;;;;;;;;;;5074206;28;20223;-54
2023/06/08 01:49:49;;;;;;;12.77;7.47;;;;;;;;;;5074090;28;20198;-54
2023/06/08 01:52:16;;;;;;;10.50;6.57;;;;;;;;;;5073790;28;20199;-54
2023/06/08 01:54:42;;;;;;;12.83;7.43;;;;;;;;;;5073894;28;20517;-54
2023/06/08 01:57:08;;;;;;;10.33;6.27;;;;;;;;;;5073892;28;20544;-54
2023/06/08 01:59:35;;;;;;;10.20;6.60;;;;;;;;;;5073740;28;20198;-54
2023/06/08 02:02:01;;;;;;;8.90;6.97;;;;;;;;;;5073656;28;20257;-54
2023/06/08 02:04:27;;;;;;;11.13;6.43;;;;;;;;;;5073655;28;20219;-54
2023/06/08 02:06:54;;;;;;;15.07;7.67;;;;;;;;;;5072832;28;20646;-54
2023/06/08 02:09:20;;;;;;;9.80;6.87;;;;;;;;;;5073691;28;20206;-54
2023/06/08 02:11:46;;;;;;;10.83;7.47;;;;;;;;;;5073578;28;20582;-54
2023/06/08 02:14:12;;;;;;;12.73;7.27;;;;;;;;;;5073376;28;20195;-53
2023/06/08 02:16:40;;;;;;;11.70;7.57;;;;;;;;;;5073555;28;20257;-54
2023/06/08 02:19:06;;;;;;;16.23;8.30;;;;;;;;;;5073558;28;20226;-54
2023/06/08 02:21:32;;;;;;;12.30;7.90;;;;;;;;;;5073435;28;20714;-53
2023/06/08 02:23:59;;;;;;;12.00;7.93;;;;;;;;;;5073112;28;20321;-54
2023/06/08 02:26:25;;;;;;;15.73;8.37;;;;;;;;;;5073140;28;20210;-54
2023/06/08 02:28:51;;;;;;;17.53;8.80;;;;;;;;;;5073487;28;20674;-53
2023/06/08 02:31:17;;;;;;;9.77;7.73;;;;;;;;;;5073250;28;20253;-54
2023/06/08 02:33:44;;;;;;;14.60;8.43;;;;;;;;;;5072983;28;20763;-54
2023/06/08 02:36:10;;;;;;;15.47;8.50;;;;;;;;;;5073104;28;20204;-54
2023/06/08 02:38:38;;;;;;;16.50;8.00;;;;;;;;;;5073177;28;20207;-54
2023/06/08 02:41:04;;;;;;;14.60;8.40;;;;;;;;;;5073138;28;20219;-54
2023/06/08 02:43:30;;;;;;;14.97;8.77;;;;;;;;;;5072817;28;20987;-54
2023/06/08 02:45:56;;;;;;;13.33;8.67;;;;;;;;;;5073004;28;20650;-54
2023/06/08 02:48:22;;;;;;;14.77;8.87;;;;;;;;;;5071544;28;20210;-54
2023/06/08 02:50:50;;;;;;;12.10;8.47;;;;;;;;;;5072979;28;20558;-54
2023/06/08 02:53:16;;;;;;;15.10;9.17;;;;;;;;;;5072688;28;20195;-53
2023/06/08 02:55:42;;;;;;;17.60;10.00;;;;;;;;;;5072772;28;20223;-54
2023/06/08 02:58:09;;;;;;;14.27;9.67;;;;;;;;;;5072738;28;20231;-54
2023/06/08 03:00:35;;;;;;;14.73;9.53;;;;;;;;;;5072567;28;20697;-54
2023/06/08 03:03:01;;;;;;;16.30;9.57;;;;;;;;;;5072308;28;20573;-54
2023/06/08 03:05:29;;;;;;;15.77;10.40;;;;;;;;;;5071301;28;20264;-54
2023/06/08 03:07:58;;;;;;;15.03;10.37;;;;;;;;;;5072454;28;20200;-55
2023/06/08 03:10:25;;;;;;;13.90;9.67;;;;;;;;;;5072461;28;20282;-54
2023/06/08 03:12:51;;;;;;;17.40;10.20;;;;;;;;;;5072428;28;20203;-54
2023/06/08 03:15:22;;;;;;;13.13;9.93;;;;;;;;;;5072075;28;20294;-54
2023/06/08 03:17:48;;;;;;;15.83;10.13;;;;;;;;;;5071626;28;20207;-53
2023/06/08 03:20:17;;;;;;;14.37;11.10;;;;;;;;;;5071927;28;20306;-53
2023/06/08 03:22:45;;;;;;;19.37;12.10;;;;;;;;;;5072085;28;20728;-54
2023/06/08 03:25:16;;;;;;;16.67;11.70;;;;;;;;;;5071902;28;20239;-54
2023/06/08 03:27:42;;;;;;;16.00;11.40;;;;;;;;;;5072159;28;20616;-54
2023/06/08 03:30:09;;;;;;;22.00;12.73;;;;;;;;;;5072063;28;20282;-54
2023/06/08 03:32:36;;;;;;;19.53;12.90;;;;;;;;;;5072127;28;20206;-54
2023/06/08 03:35:02;;;;;;;20.10;13.30;;;;;;;;;;5071841;28;20219;-54
2023/06/08 03:37:28;;;;;;;19.37;12.77;;;;;;;;;;5071850;28;20435;-54
2023/06/08 03:39:54;;;;;;;15.83;12.70;;;;;;;;;;5071842;28;20662;-54
2023/06/08 03:42:21;;;;;;;17.83;13.60;;;;;;;;;;5071849;28;20205;-54
2023/06/08 03:44:47;;;;;;;16.03;13.57;;;;;;;;;;5071828;28;20230;-54
2023/06/08 03:47:14;;;;;;;18.00;13.40;;;;;;;;;;5071629;28;20245;-54
2023/06/08 03:49:40;;;;;;;22.57;14.23;;;;;;;;;;5071609;28;20201;-53
2023/06/08 03:52:06;;;;;;;19.77;13.97;;;;;;;;;;5071778;28;20191;-54
2023/06/08 03:54:32;;;;;;;15.47;13.87;;;;;;;;;;5071535;28;20225;-52
2023/06/08 03:56:58;;;;;;;18.30;14.77;;;;;;;;;;5071575;28;20196;-54
2023/06/08 03:59:26;;;;;;;18.13;14.63;;;;;;;;;;5071357;28;20237;-54
2023/06/08 04:01:52;;;;;;;21.63;14.73;;;;;;;;;;5071518;28;20249;-54
2023/06/08 04:04:18;;;;;;;20.27;14.57;;;;;;;;;;5070089;28;20212;-54
2023/06/08 04:06:44;;;;;;;19.00;13.87;;;;;;;;;;5071531;28;20829;-52
2023/06/08 04:09:11;;;;;;;21.20;15.07;;;;;;;;;;5071307;28;20273;-52
2023/06/08 04:11:37;;;;;;;17.90;14.23;;;;;;;;;;5071399;28;20278;-52
2023/06/08 04:14:03;;;;;;;18.10;13.73;;;;;;;;;;5071372;28;20290;-52
2023/06/08 04:16:31;;;;;;;19.67;13.87;;;;;;;;;;5071081;28;20199;-51
2023/06/08 04:18:56;;;;;;;16.83;13.50;;;;;;;;;;5071161;28;20265;-53
2023/06/08 04:21:25;;;;;;;14.93;12.33;;;;;;;;;;5071131;28;20273;-52
2023/06/08 04:23:51;;;;;;;18.90;14.43;;;;;;;;;;5071189;28;20292;-52
2023/06/08 04:26:17;;;;;;;20.90;14.00;;;;;;;;;;5071168;28;20650;-53
2023/06/08 04:28:44;;;;;;;16.73;12.97;;;;;;;;;;5071032;28;20196;-53
2023/06/08 04:31:10;;;;;;;19.23;13.80;;;;;;;;;;5070915;28;20669;-53
2023/06/08 04:33:37;;;;;;;18.53;13.77;;;;;;;;;;5071059;28;20226;-53
2023/06/08 04:36:03;;;;;;;22.67;15.40;;;;;;;;;;5071168;28;20204;-53
2023/06/08 04:38:30;;;;;;;19.10;15.47;;;;;;;;;;5070794;28;20261;-53
2023/06/08 04:40:56;;;;;;;17.60;14.03;;;;;;;;;;5071144;28;20234;-53
2023/06/08 04:43:22;;;;;;;22.40;14.97;;;;;;;;;;5071093;28;20195;-53
2023/06/08 04:45:51;;;;;;;21.03;16.37;;;;;;;;;;5071070;28;20278;-53
2023/06/08 04:48:19;;;;;;;22.93;15.70;;;;;;;;;;5070837;28;20658;-53
2023/06/08 04:50:50;;;;;;;23.73;16.17;;;;;;;;;;5070815;28;20654;-53
2023/06/08 04:53:16;;;;;;;19.83;15.23;;;;;;;;;;5070839;28;20215;-52
2023/06/08 04:55:44;;;;;;;20.97;15.87;;;;;;;;;;5070810;28;20653;-52
2023/06/08 04:58:11;;;;;;;20.27;15.33;;;;;;;;;;5070754;28;20208;-53
2023/06/08 05:00:37;;;;;;;21.03;16.20;;;;;;;;;;5070880;28;20297;-54
2023/06/08 05:03:03;;;;;;;21.27;17.10;;;;;;;;;;5071001;28;20305;-54
2023/06/08 05:05:29;;;;;;;28.50;19.87;;;;;;;;;;5070691;28;20731;-54
2023/06/08 05:07:56;;;;;;;25.00;19.33;;;;;;;;;;5070853;28;20278;-53
2023/06/08 05:10:22;;;;;;;23.03;17.70;;;;;;;;;;5070925;28;20196;-53
2023/06/08 05:12:50;;;;;;;20.90;17.17;;;;;;;;;;5070705;28;20695;-53
2023/06/08 05:15:16;;;;;;;21.87;17.23;;;;;;;;;;5070447;28;20204;-53
2023/06/08 05:17:42;;;;;;;24.33;17.47;;;;;;;;;;5070016;28;20274;-53
2023/06/08 05:20:08;;;;;;;24.03;18.13;;;;;;;;;;5070581;28;20281;-53
2023/06/08 05:22:34;;;;;;;22.50;16.97;;;;;;;;;;5070161;28;20231;-53
2023/06/08 05:25:02;;;;;;;19.00;14.77;;;;;;;;;;5070475;28;20267;-52
2023/06/08 05:27:28;;;;;;;19.23;14.47;;;;;;;;;;5070448;28;20600;-53
2023/06/08 05:29:54;;;;;;;20.93;16.00;;;;;;;;;;5070508;28;20282;-53
2023/06/08 05:32:21;;;;;;;19.13;14.80;;;;;;;;;;5070514;28;20290;-53
2023/06/08 05:34:47;;;;;;;20.90;15.33;;;;;;;;;;5070105;28;20275;-53
2023/06/08 05:37:14;;;;;;;17.27;14.87;;;;;;;;;;5070085;28;20780;-52
2023/06/08 05:39:40;;;;;;;17.30;13.37;;;;;;;;;;5070477;28;20214;-53
2023/06/08 05:42:08;;;;;;;17.23;13.60;;;;;;;;;;5072186;28;20581;-54
2023/06/08 05:44:34;;;;;;;17.27;12.50;;;;;;;;;;5073942;28;20290;-53
2023/06/08 05:47:00;;;;;;;14.97;11.80;;;;;;;;;;5073987;28;20642;-53
2023/06/08 05:49:26;;;;;;;16.43;13.17;;;;;;;;;;5073729;28;20210;-54
2023/06/08 05:51:52;;;;;;;19.23;13.27;;;;;;;;;;5074046;28;20262;-53
2023/06/08 05:54:18;;;;;;;17.63;14.27;;;;;;;;;;5073918;28;20249;-53
2023/06/08 05:56:44;;;;;;;17.33;13.90;;;;;;;;;;5073953;28;20515;-54
2023/06/08 05:59:11;;;;;;;21.00;17.23;;;;;;;;;;5073756;28;20286;-53
2023/06/08 06:01:37;;;;;;;23.73;18.97;;;;;;;;;;5073629;28;20231;-54
2023/06/08 06:04:03;;;;;;;22.17;17.77;;;;;;;;;;5073700;28;20220;-53
2023/06/08 06:06:30;;;;;;;21.93;17.30;;;;;;;;;;5073312;28;20283;-54
2023/06/08 06:08:56;;;;;;;22.73;16.73;;;;;;;;;;5073616;28;20614;-53
2023/06/08 06:11:22;;;;;;;19.87;16.57;;;;;;;;;;5073612;28;20195;-53
2023/06/08 06:13:48;;;;;;;18.20;16.30;;;;;;;;;;5073517;28;20203;-54
2023/06/08 06:16:15;;;;;;;19.47;15.47;;;;;;;;;;5073168;28;20203;-53
2023/06/08 06:18:43;;;;;;;16.70;12.80;;;;;;;;;;5073272;28;20207;-53
2023/06/08 06:21:09;;;;;;;15.57;12.50;;;;;;;;;;5073380;28;20211;-53
2023/06/08 06:23:35;;;;;;;13.87;11.67;;;;;;;;;;5073051;28;20214;-54
2023/06/08 06:26:01;;;;;;;13.73;11.53;;;;;;;;;;5073389;28;20196;-53
2023/06/08 06:28:27;;;;;;;14.33;12.33;;;;;;;;;;5073122;28;20339;-54
2023/06/08 06:30:53;;;;;;;15.93;13.47;;;;;;;;;;5073190;28;20725;-53
2023/06/08 06:33:20;;;;;;;17.33;13.03;;;;;;;;;;5073299;28;20187;-53
2023/06/08 06:35:46;;;;;;;19.87;13.03;;;;;;;;;;5073239;28;20199;-53
2023/06/08 06:38:12;;;;;;;17.20;12.33;;;;;;;;;;5073036;28;20218;-53
2023/06/08 06:40:38;;;;;;;18.17;12.97;;;;;;;;;;5073107;28;20681;-53
2023/06/08 06:43:04;;;;;;;15.57;11.83;;;;;;;;;;5073260;28;20488;-53
2023/06/08 06:45:30;;;;;;;12.33;11.03;;;;;;;;;;5072858;28;20282;-53
2023/06/08 06:47:56;;;;;;;16.20;11.57;;;;;;;;;;5072716;28;20681;-53
2023/06/08 06:50:24;;;;;;;13.47;9.83;;;;;;;;;;5072758;28;20219;-53
2023/06/08 06:52:50;;;;;;;14.50;10.93;;;;;;;;;;5072697;28;20207;-53
2023/06/08 06:55:16;;;;;;;13.77;10.53;;;;;;;;;;5072632;28;20294;-54
2023/06/08 06:57:42;;;;;;;14.70;11.47;;;;;;;;;;5072639;28;20492;-54
2023/06/08 07:00:10;;;;;;;15.27;11.30;;;;;;;;;;5072590;28;20537;-53
2023/06/08 07:02:37;;;;;;;14.87;10.80;;;;;;;;;;5072559;28;20204;-53
2023/06/08 07:05:04;;;;;;;13.60;11.03;;;;;;;;;;5072529;28;20216;-54
2023/06/08 07:07:31;;;;;;;13.37;9.67;;;;;;;;;;5072213;28;20199;-54
2023/06/08 07:09:57;;;;;;;14.73;10.30;;;;;;;;;;5072329;28;20196;-54
2023/06/08 07:12:23;;;;;;;10.70;9.30;;;;;;;;;;5072223;28;20202;-54
2023/06/08 07:14:49;;;;;;;11.90;9.20;;;;;;;;;;5072441;28;20680;-54
2023/06/08 07:17:15;;;;;;;12.73;10.03;;;;;;;;;;5072207;28;20198;-54
2023/06/08 07:19:42;;;;;;;16.03;11.00;;;;;;;;;;5072053;28;20269;-54
2023/06/08 07:22:08;;;;;;;11.30;9.37;;;;;;;;;;5072020;28;20228;-54
2023/06/08 07:24:36;;;;;;;12.47;9.63;;;;;;;;;;5071656;28;20244;-54
2023/06/08 07:27:02;;;;;;;11.27;8.43;;;;;;;;;;5071861;28;20574;-54
2023/06/08 07:29:28;;;;;;;11.43;8.90;;;;;;;;;;5071845;28;20201;-55
2023/06/08 07:31:54;;;;;;;11.47;9.00;;;;;;;;;;5072046;28;20553;-56
2023/06/08 07:34:20;;;;;;;12.80;9.23;;;;;;;;;;5071778;28;20211;-55
2023/06/08 07:36:46;;;;;;;11.30;9.27;;;;;;;;;;5071756;28;20288;-55
2023/06/08 07:39:13;;;;;;;13.83;9.40;;;;;;;;;;5072034;28;20808;-56
2023/06/08 07:41:40;;;;;;;14.00;9.00;;;;;;;;;;5071691;28;20227;-56
2023/06/08 07:44:06;;;;;;;14.07;8.93;;;;;;;;;;5071983;28;20717;-55
2023/06/08 07:46:32;;;;;;;12.57;9.13;;;;;;;;;;5071618;28;20297;-56
2023/06/08 07:48:58;;;;;;;11.63;8.13;;;;;;;;;;5071555;28;20714;-56
2023/06/08 07:51:24;;;;;;;11.07;9.97;;;;;;;;;;5071453;28;20199;-58
2023/06/08 07:53:50;;;;;;;12.40;8.80;;;;;;;;;;5071580;28;20195;-54
2023/06/08 07:56:16;;;;;;;12.00;8.53;;;;;;;;;;5071472;28;20203;-54
2023/06/08 07:58:43;;;;;;;10.97;8.03;;;;;;;;;;5071340;28;20252;-52
2023/06/08 08:01:09;;;;;;;13.03;7.87;;;;;;;;;;5071352;28;20246;-55
2023/06/08 08:03:36;;;;;;;14.10;8.40;;;;;;;;;;5071114;28;20564;-55
2023/06/08 08:06:02;;;;;;;10.03;7.80;;;;;;;;;;5070981;28;20203;-55
2023/06/08 08:08:28;;;;;;;14.40;9.13;;;;;;;;;;5071224;28;20199;-55
2023/06/08 08:10:54;;;;;;;11.83;7.97;;;;;;;;;;5071349;28;20187;-56
2023/06/08 08:13:20;;;;;;;11.10;8.27;;;;;;;;;;5071369;28;20257;-56
2023/06/08 08:15:48;;;;;;;11.13;9.47;;;;;;;;;;5069896;28;20202;-56
2023/06/08 08:18:14;;;;;;;12.33;8.90;;;;;;;;;;5071007;28;20800;-56
2023/06/08 08:20:40;;;;;;;9.70;8.30;;;;;;;;;;5070896;28;20227;-55
2023/06/08 08:23:06;;;;;;;9.47;8.17;;;;;;;;;;5071383;28;20597;-53
2023/06/08 08:25:32;;;;;;;11.47;8.70;;;;;;;;;;5070893;28;20238;-54
2023/06/08 08:27:58;;;;;;;11.87;8.80;;;;;;;;;;5070915;28;20730;-55
2023/06/08 08:30:24;;;;;;;9.37;7.87;;;;;;;;;;5071046;28;20223;-55
2023/06/08 08:32:51;;;;;;;11.70;7.83;;;;;;;;;;5070938;28;20720;-56
2023/06/08 08:35:18;;;;;;;14.57;8.30;;;;;;;;;;5071045;28;20290;-55
2023/06/08 08:37:45;;;;;;;11.43;8.63;;;;;;;;;;5070949;28;20486;-55
2023/06/08 08:40:11;;;;;;;14.93;8.57;;;;;;;;;;5070923;28;20202;-55
2023/06/08 08:42:40;;;;;;;14.27;9.80;;;;;;;;;;5071090;28;21244;-56
2023/06/08 08:45:07;;;;;;;9.73;8.73;;;;;;;;;;5071272;28;20199;-55
2023/06/08 08:47:34;;;;;;;12.07;8.00;;;;;;;;;;5070828;28;20296;-55
2023/06/08 08:50:04;;;;;;;12.80;9.23;;;;;;;;;;5070701;28;20545;-55
2023/06/08 08:52:33;;;;;;;10.83;8.40;;;;;;;;;;5070695;28;20203;-55
2023/06/08 08:55:00;;;;;;;9.90;8.00;;;;;;;;;;5070995;28;20290;-56
2023/06/08 08:57:30;;;;;;;11.30;8.00;;;;;;;;;;5070888;28;20214;-56
2023/06/08 08:59:56;;;;;;;11.47;7.87;;;;;;;;;;5070705;28;20690;-55
2023/06/08 09:02:22;;;;;;;9.43;7.67;;;;;;;;;;5070609;28;20229;-56
2023/06/08 09:04:50;;;;;;;9.83;6.87;;;;;;;;;;5070921;28;20310;-56
2023/06/08 09:07:19;;;;;;;10.00;7.40;;;;;;;;;;5070409;28;20208;-56
2023/06/08 09:10:00;;;;;;;8.73;7.10;;;;;;;;;;5070675;28;20576;-56
2023/06/08 09:12:26;;;;;;;9.93;7.17;;;;;;;;;;5070415;28;20617;-56
2023/06/08 09:15:00;;;;;;;10.83;6.57;;;;;;;;;;5070997;28;20263;-56
2023/06/08 09:17:37;;;;;;;10.43;6.53;;;;;;;;;;5074227;28;20199;-56
2023/06/08 09:20:03;;;;;;;11.93;7.23;;;;;;;;;;5074661;28;20187;-56
2023/06/08 09:22:31;;;;;;;10.93;6.40;;;;;;;;;;5074154;28;20230;-59
2023/06/08 09:24:57;;;;;;;8.73;6.23;;;;;;;;;;5074182;28;20265;-56
2023/06/08 09:27:25;;;;;;;11.20;6.73;;;;;;;;;;5074356;28;20241;-56
2023/06/08 09:29:52;;;;;;;9.53;7.47;;;;;;;;;;5074423;28;20199;-56
2023/06/08 09:32:25;;;;;;;9.83;6.60;;;;;;;;;;5074297;28;20199;-56
2023/06/08 09:34:55;;;;;;;8.27;6.00;;;;;;;;;;5074422;28;20203;-56
2023/06/08 09:37:25;;;;;;;7.30;5.93;;;;;;;;;;5074199;28;20291;-56
2023/06/08 09:39:54;;;;;;;10.93;6.93;;;;;;;;;;5074340;28;20197;-56
2023/06/08 09:42:20;;;;;;;15.93;8.03;;;;;;;;;;5074165;28;20219;-56
2023/06/08 09:44:46;;;;;;;10.50;7.07;;;;;;;;;;5074126;28;20193;-56
2023/06/08 09:47:22;;;;;;;13.23;7.23;;;;;;;;;;5073776;28;20756;-56
2023/06/08 09:49:49;;;;;;;9.77;6.80;;;;;;;;;;5073963;28;20211;-56
2023/06/08 09:52:16;;;;;;;8.93;6.23;;;;;;;;;;5073900;28;20223;-56
2023/06/08 09:54:45;;;;;;;10.53;7.17;;;;;;;;;;5073830;28;20462;-56
2023/06/08 09:57:14;;;;;;;10.30;7.00;;;;;;;;;;5072646;28;20410;-56
2023/06/08 09:59:42;;;;;;;11.87;6.63;;;;;;;;;;5073621;28;20210;-56
2023/06/08 10:02:17;;;;;;;10.10;6.33;;;;;;;;;;5073568;28;20245;-56
2023/06/08 10:04:45;;;;;;;10.30;7.07;;;;;;;;;;5073528;28;20666;-56
2023/06/08 10:07:13;;;;;;;7.40;5.50;;;;;;;;;;5073571;28;20206;-56
2023/06/08 10:09:42;;;;;;;9.23;5.70;;;;;;;;;;5073325;28;20214;-56
2023/06/08 10:12:09;;;;;;;10.70;6.47;;;;;;;;;;5073480;28;20203;-56
2023/06/08 10:14:37;;;;;;;9.73;6.47;;;;;;;;;;5073437;28;20664;-56
2023/06/08 10:17:04;;;;;;;10.35;7.43;;;;;;;;;;5072183;28;20511;-56
2023/06/08 10:19:31;;;;;;;8.20;6.13;;;;;;;;;;5073358;28;20579;-56
2023/06/08 10:21:58;;;;;;;10.25;7.70;;;;;;;;;;5071967;28;20447;-56
2023/06/08 10:24:25;;;;;;;14.67;6.10;;;;;;;;;;5073021;28;20263;-56
2023/06/08 10:26:51;;;;;;;8.77;6.87;;;;;;;;;;5072949;28;20194;-56
2023/06/08 10:29:26;;;;;;;11.77;7.13;;;;;;;;;;5073116;28;20199;-56
2023/06/08 10:31:53;;;;;;;10.30;6.53;;;;;;;;;;5073290;28;20201;-56
2023/06/08 10:34:19;;;;;;;10.80;6.47;;;;;;;;;;5073262;28;20197;-56
2023/06/08 10:36:46;;;;;;;8.90;5.97;;;;;;;;;;5073160;28;20206;-56
2023/06/08 10:39:13;;;;;;;9.27;6.10;;;;;;;;;;5073043;28;20198;-56
2023/06/08 10:41:39;;;;;;;9.50;6.93;;;;;;;;;;5071574;28;20446;-56
2023/06/08 10:44:05;;;;;;;11.53;7.20;;;;;;;;;;5073181;28;20570;-56
2023/06/08 10:46:40;;;;;;;9.40;6.20;;;;;;;;;;5071545;28;20820;-56
2023/06/08 10:49:08;;;;;;;11.87;6.27;;;;;;;;;;5072900;28;20194;-56
2023/06/08 10:51:42;;;;;;;9.27;6.22;;;;;;;;;;5071636;28;20427;-56
2023/06/08 10:54:09;;;;;;;8.67;6.80;;;;;;;;;;5072862;28;20248;-56
2023/06/08 10:56:42;;;;;;;8.65;6.32;;;;;;;;;;5071423;28;20404;-56
2023/06/08 10:59:08;;;;;;;8.17;6.13;;;;;;;;;;5072724;28;20202;-56
2023/06/08 11:01:36;;;;;;;8.70;6.10;;;;;;;;;;5072447;28;20273;-56
2023/06/08 11:04:05;;;;;;;6.67;5.87;;;;;;;;;;5072550;28;20215;-56
2023/06/08 11:06:33;;;;;;;10.57;6.37;;;;;;;;;;5072358;28;20264;-56
2023/06/08 11:09:02;;;;;;;11.77;7.40;;;;;;;;;;5072720;28;20206;-56
2023/06/08 11:11:28;;;;;;;6.67;5.47;;;;;;;;;;5072232;28;20202;-56
2023/06/08 11:13:54;;;;;;;7.80;6.00;;;;;;;;;;5071160;28;20894;-56
2023/06/08 11:16:20;;;;;;;10.15;7.00;;;;;;;;;;5071135;28;20403;-56
2023/06/08 11:18:46;;;;;;;11.43;6.63;;;;;;;;;;5071044;28;20744;-56
2023/06/08 11:21:12;;;;;;;9.97;7.23;;;;;;;;;;5072031;28;20770;-56
2023/06/08 11:23:41;;;;;;;11.77;6.53;;;;;;;;;;5071810;28;20204;-56
2023/06/08 11:26:11;;;;;;;9.05;6.63;;;;;;;;;;5070967;28;20407;-56
2023/06/08 11:28:37;;;;;;;7.93;6.03;;;;;;;;;;5071905;28;20202;-56
2023/06/08 11:31:06;;;;;;;8.50;6.17;;;;;;;;;;5071999;28;20604;-56
2023/06/08 11:33:33;;;;;;;9.50;6.07;;;;;;;;;;5071845;28;20248;-56
2023/06/08 11:35:59;;;;;;;9.07;6.10;;;;;;;;;;5071782;28;20524;-56
2023/06/08 11:38:25;;;;;;;9.52;6.78;;;;;;;;;;5069919;28;20392;-56
2023/06/08 11:40:57;;;;;;;9.47;5.67;;;;;;;;;;5071383;28;20219;-56
2023/06/08 11:43:22;;;;;;;8.77;6.30;;;;;;;;;;5071699;28;20216;-56
2023/06/08 11:45:48;;;;;;;7.00;6.10;;;;;;;;;;5071722;28;20594;-56
2023/06/08 11:48:15;;;;;;;10.50;6.90;;;;;;;;;;5070330;28;20409;-56
2023/06/08 11:50:47;;;;;;;9.55;6.47;;;;;;;;;;5070244;28;20418;-56
2023/06/08 11:53:15;;;;;;;10.60;6.77;;;;;;;;;;5070294;28;20395;-56
2023/06/08 11:55:45;;;;;;;9.60;6.25;;;;;;;;;;5070207;28;20407;-56
2023/06/08 11:58:14;;;;;;;9.30;6.10;;;;;;;;;;5070255;28;20402;-56
2023/06/08 12:00:40;;;;;;;9.83;5.93;;;;;;;;;;5071166;28;20212;-56
2023/06/08 12:03:09;;;;;;;8.23;5.80;;;;;;;;;;5070332;28;20406;-56
2023/06/08 12:05:35;;;;;;;7.35;5.65;;;;;;;;;;5070167;28;20494;-56
2023/06/08 12:08:02;;;;;;;8.25;5.65;;;;;;;;;;5069893;28;20804;-56
2023/06/08 12:10:32;;;;;;;7.40;5.20;;;;;;;;;;5071290;28;20725;-56
2023/06/08 12:12:58;;;;;;;8.65;6.00;;;;;;;;;;5070086;28;20461;-56
2023/06/08 12:15:26;;;;;;;10.77;6.27;;;;;;;;;;5071224;28;20201;-56
2023/06/08 12:17:52;;;;;;;6.90;5.25;;;;;;;;;;5069795;28;20404;-56
2023/06/08 12:20:18;;;;;;;8.45;6.05;;;;;;;;;;5069975;28;20917;-56
2023/06/08 12:22:44;;;;;;;8.65;5.15;;;;;;;;;;5069780;28;20408;-54
2023/06/08 12:25:11;;;;;;;6.97;5.53;;;;;;;;;;5070992;28;20239;-55
2023/06/08 12:27:39;;;;;;;5.10;4.60;;;;;;;;;;5071044;28;20194;-54
2023/06/08 12:30:06;;;;;;;7.33;5.63;;;;;;;;;;5071227;28;20206;-54
2023/06/08 12:32:33;;;;;;;9.37;5.53;;;;;;;;;;5070887;28;20561;-55
2023/06/08 12:35:00;;;;;;;6.90;4.70;;;;;;;;;;5070876;28;20213;-55
2023/06/08 12:37:27;;;;;;;8.37;5.20;;;;;;;;;;5070718;28;20199;-55
2023/06/08 12:39:53;;;;;;;5.93;4.80;;;;;;;;;;5071146;28;20203;-55
2023/06/08 12:42:20;;;;;;;5.97;4.17;;;;;;;;;;5070885;28;20704;-55
2023/06/08 12:44:47;;;;;;;5.60;4.40;;;;;;;;;;5070942;28;20282;-55
2023/06/08 12:47:13;;;;;;;7.95;5.03;;;;;;;;;;5069378;28;20878;-55
2023/06/08 12:49:43;;;;;;;5.78;4.85;;;;;;;;;;5069478;28;20447;-55
2023/06/08 12:52:09;;;;;;;6.07;4.63;;;;;;;;;;5073591;28;20391;-55
2023/06/08 12:54:35;;;;;;;6.70;4.23;;;;;;;;;;5075098;28;20194;-55
2023/06/08 12:57:01;;;;;;;7.78;4.90;;;;;;;;;;5073761;28;20491;-55
2023/06/08 12:59:27;;;;;;;5.05;4.35;;;;;;;;;;5073761;28;20884;-55
2023/06/08 13:01:53;;;;;;;6.77;3.87;;;;;;;;;;5074576;28;20219;-55
2023/06/08 13:04:19;;;;;;;7.43;4.50;;;;;;;;;;5074801;28;20307;-55
2023/06/08 13:06:47;;;;;;;5.67;3.50;;;;;;;;;;5074665;28;20656;-55
2023/06/08 13:09:13;;;;;;;4.90;4.20;;;;;;;;;;5074748;28;20442;-55
2023/06/08 13:11:42;;;;;;;6.63;4.33;;;;;;;;;;5074796;28;20191;-55
2023/06/08 13:14:08;;;;;;;5.87;3.60;;;;;;;;;;5074544;28;20687;-55
2023/06/08 13:16:34;;;;;;;4.97;3.87;;;;;;;;;;5074526;28;20289;-55
2023/06/08 13:19:00;;;;;;;6.17;4.10;;;;;;;;;;5074448;28;20205;-55
2023/06/08 13:21:31;;;;;;;7.00;4.67;;;;;;;;;;5073014;28;20898;-55
2023/06/08 13:23:58;;;;;;;4.90;4.20;;;;;;;;;;5074237;28;20326;-55
2023/06/08 13:26:25;;;;;;;5.97;3.83;;;;;;;;;;5074332;28;20206;-55
2023/06/08 13:28:51;;;;;;;4.30;3.88;;;;;;;;;;5072973;28;20449;-55
2023/06/08 13:31:17;;;;;;;4.53;3.85;;;;;;;;;;5073000;28;20407;-55
2023/06/08 13:33:43;;;;;;;5.07;3.83;;;;;;;;;;5073019;28;20484;-55
2023/06/08 13:36:09;;;;;;;7.20;4.57;;;;;;;;;;5074408;28;20762;-55
2023/06/08 13:38:36;;;;;;;5.33;4.23;;;;;;;;;;5074285;28;20200;-55
2023/06/08 13:41:04;;;;;;;4.47;4.03;;;;;;;;;;5074097;28;20292;-55
2023/06/08 13:43:29;;;;;;;6.77;5.03;;;;;;;;;;5074045;28;20218;-55
2023/06/08 13:45:58;;;;;;;6.77;4.50;;;;;;;;;;5073986;28;20200;-55
2023/06/08 13:48:24;;;;;;;5.27;4.20;;;;;;;;;;5073905;28;20200;-55
2023/06/08 13:50:50;;;;;;;6.43;4.10;;;;;;;;;;5074037;28;20627;-55
2023/06/08 13:53:16;;;;;;;4.50;4.10;;;;;;;;;;5073944;28;20188;-56
2023/06/08 13:55:42;;;;;;;6.87;4.70;;;;;;;;;;5073800;28;20196;-55
2023/06/08 13:58:09;;;;;;;7.53;4.67;;;;;;;;;;5073849;28;20183;-54
2023/06/08 14:00:35;;;;;;;8.00;4.90;;;;;;;;;;5073831;28;20207;-56
2023/06/08 14:03:02;;;;;;;6.57;4.83;;;;;;;;;;5073098;28;20210;-55
2023/06/08 14:05:28;;;;;;;5.47;4.93;;;;;;;;;;5073534;28;20215;-55
2023/06/08 14:07:55;;;;;;;5.60;4.57;;;;;;;;;;5073578;28;20200;-55
2023/06/08 14:10:21;;;;;;;5.97;4.80;;;;;;;;;;5073742;28;20205;-55
2023/06/08 14:12:48;;;;;;;6.83;5.47;;;;;;;;;;5073505;28;20195;-55
2023/06/08 14:15:16;;;;;;;6.90;4.70;;;;;;;;;;5073453;28;20205;-56
2023/06/08 14:17:42;;;;;;;6.03;4.50;;;;;;;;;;5073336;28;20201;-56
2023/06/08 14:20:08;;;;;;;5.63;4.20;;;;;;;;;;5073431;28;20217;-55
2023/06/08 14:22:35;;;;;;;5.67;4.57;;;;;;;;;;5073277;28;20587;-56
2023/06/08 14:25:01;;;;;;;5.43;4.47;;;;;;;;;;5073071;28;20244;-57
2023/06/08 14:27:27;;;;;;;4.70;4.20;;;;;;;;;;5073204;28;20871;-57
2023/06/08 14:29:53;;;;;;;6.07;4.50;;;;;;;;;;5073339;28;20208;-55